Time;durP1;ratioP1;P1;durP2;ratioP2;P2;SDS_P1;SDS_P2;PMS_P1;PMS_P2;Temp;Humidity;BMP_temperature;BMP_pressure;BME280_temperature;BME280_humidity;BME280_pressure;Samples;Min_cycle;Max_cycle;Signal;HPM_P1;HPM_P2
2022/07/07 00:01:00;;;;;;;3.72;0.98;;;16.40;89.60;;;;;;5076191;28;20044;-66
2022/07/07 00:03:26;;;;;;;2.65;0.60;;;16.30;89.70;;;;;;5076493;28;20037;-66
2022/07/07 00:05:52;;;;;;;4.45;0.95;;;16.30;90.00;;;;;;5076410;28;20045;-64
2022/07/07 00:08:17;;;;;;;3.90;1.17;;;16.30;89.80;;;;;;5076140;28;20024;-67
2022/07/07 00:10:43;;;;;;;2.97;0.90;;;16.30;90.00;;;;;;5076151;28;20040;-65
2022/07/07 00:13:09;;;;;;;6.70;1.02;;;16.30;90.10;;;;;;5076492;28;20032;-64
2022/07/07 00:15:35;;;;;;;2.42;1.17;;;16.40;89.90;;;;;;5076230;28;20131;-65
2022/07/07 00:18:01;;;;;;;3.40;0.82;;;16.60;89.50;;;;;;5076083;28;20452;-66
2022/07/07 00:20:26;;;;;;;2.58;0.80;;;16.70;89.60;;;;;;5075959;28;20046;-66
2022/07/07 00:22:52;;;;;;;1.98;0.90;;;16.70;89.10;;;;;;5076115;28;20041;-65
2022/07/07 00:25:18;;;;;;;7.85;0.88;;;16.50;89.60;;;;;;5076082;28;20513;-67
2022/07/07 00:27:44;;;;;;;1.92;0.73;;;16.40;90.10;;;;;;5076048;28;20045;-65
2022/07/07 00:30:10;;;;;;;3.30;0.70;;;16.20;90.20;;;;;;5073552;28;20128;-65
2022/07/07 00:32:36;;;;;;;2.13;0.90;;;16.20;90.20;;;;;;5056434;28;20045;-66
2022/07/07 00:35:02;;;;;;;5.13;0.98;;;16.30;90.40;;;;;;5054880;28;20044;-67
2022/07/07 00:37:27;;;;;;;2.70;0.73;;;16.20;90.40;;;;;;5054845;28;20037;-66
2022/07/07 00:39:53;;;;;;;9.82;1.08;;;16.30;90.10;;;;;;5054823;28;20028;-64
2022/07/07 00:42:19;;;;;;;5.18;0.73;;;16.30;90.10;;;;;;5054575;28;20392;-65
2022/07/07 00:44:44;;;;;;;4.53;1.00;;;16.20;90.30;;;;;;5054626;28;20040;-64
2022/07/07 00:47:11;;;;;;;3.40;1.00;;;16.10;90.40;;;;;;5054680;28;20044;-63
2022/07/07 00:49:39;;;;;;;2.75;0.98;;;16.20;90.20;;;;;;5054510;28;20040;-65
2022/07/07 00:52:07;;;;;;;4.07;0.80;;;16.10;90.40;;;;;;5054483;28;20029;-64
2022/07/07 00:54:34;;;;;;;5.35;1.02;;;16.20;90.20;;;;;;5054393;28;20037;-66
2022/07/07 00:57:00;;;;;;;3.97;1.13;;;16.30;89.50;;;;;;5054322;28;20504;-67
2022/07/07 00:59:26;;;;;;;3.35;0.60;;;16.10;90.20;;;;;;5054353;28;20072;-64
2022/07/07 01:01:53;;;;;;;4.00;0.80;;;16.00;90.40;;;;;;5054437;28;20508;-64
2022/07/07 01:04:18;;;;;;;3.00;0.80;;;16.00;90.40;;;;;;5054388;28;20528;-65
2022/07/07 01:06:44;;;;;;;4.38;1.65;;;16.00;90.50;;;;;;5054260;28;20068;-65
2022/07/07 01:09:10;;;;;;;15.43;1.00;;;15.90;90.90;;;;;;5054148;28;20492;-64
2022/07/07 01:11:53;;;;;;;3.05;1.10;;;15.80;91.10;;;;;;5054074;28;20087;-64
2022/07/07 01:14:20;;;;;;;7.68;1.00;;;15.90;91.10;;;;;;5054292;28;20380;-64
2022/07/07 01:16:47;;;;;;;7.45;1.60;;;15.80;91.00;;;;;;5054168;28;20131;-64
2022/07/07 01:19:13;;;;;;;2.22;0.63;;;15.70;91.00;;;;;;5053408;28;20036;-65
2022/07/07 01:22:03;;;;;;;3.28;0.70;;;15.70;91.00;;;;;;5054056;28;20071;-65
2022/07/07 01:24:30;;;;;;;2.70;1.00;;;15.60;91.10;;;;;;5053941;28;20423;-66
2022/07/07 01:27:20;;;;;;;9.55;1.17;;;15.70;90.90;;;;;;5054048;28;20496;-65
2022/07/07 01:29:48;;;;;;;6.43;0.95;;;15.70;90.70;;;;;;5010510;28;1249058;-65
2022/07/07 01:32:14;;;;;;;2.92;1.10;;;15.80;90.50;;;;;;5054787;28;20044;-65
2022/07/07 01:34:42;;;;;;;2.08;0.80;;;15.90;90.60;;;;;;5054952;28;20487;-65
2022/07/07 01:37:08;;;;;;;2.15;0.65;;;15.90;91.00;;;;;;5054661;28;20079;-68
2022/07/07 01:39:35;;;;;;;1.83;0.73;;;15.80;90.90;;;;;;5054639;28;20488;-64
2022/07/07 01:42:01;;;;;;;2.65;0.85;;;15.80;91.00;;;;;;5054568;28;20491;-64
2022/07/07 01:44:29;;;;;;;6.28;1.42;;;15.80;90.80;;;;;;5054556;28;20082;-64
2022/07/07 01:46:55;;;;;;;3.00;0.90;;;15.80;90.90;;;;;;5054624;28;20044;-65
2022/07/07 01:49:21;;;;;;;5.60;1.15;;;15.80;91.10;;;;;;5054427;28;20024;-64
2022/07/07 01:51:46;;;;;;;6.47;1.00;;;15.90;91.20;;;;;;5054241;28;20045;-65
2022/07/07 01:54:12;;;;;;;4.45;0.90;;;15.90;91.00;;;;;;5054419;28;20087;-66
2022/07/07 01:56:38;;;;;;;2.85;1.15;;;15.90;91.20;;;;;;5054258;28;20040;-65
2022/07/07 01:59:04;;;;;;;3.30;1.00;;;15.80;91.30;;;;;;5054452;28;20065;-64
2022/07/07 02:01:29;;;;;;;4.95;1.00;;;15.70;90.90;;;;;;5054214;28;20048;-64
2022/07/07 02:03:55;;;;;;;2.00;1.00;;;15.70;91.10;;;;;;5053966;28;20037;-65
2022/07/07 02:06:21;;;;;;;5.97;0.90;;;15.60;91.20;;;;;;5054045;28;20072;-66
2022/07/07 02:08:46;;;;;;;1.83;0.90;;;15.60;91.20;;;;;;5054121;28;20065;-64
2022/07/07 02:11:12;;;;;;;2.53;0.90;;;15.70;91.10;;;;;;5054240;28;20484;-66
2022/07/07 02:13:44;;;;;;;3.65;1.20;;;15.60;91.30;;;;;;5054173;28;20033;-66
2022/07/07 02:16:11;;;;;;;3.70;0.70;;;15.70;91.10;;;;;;5054123;28;20080;-67
2022/07/07 02:18:38;;;;;;;2.33;1.08;;;15.60;91.20;;;;;;5053976;28;20040;-65
2022/07/07 02:21:06;;;;;;;2.35;0.75;;;15.70;91.50;;;;;;5053902;28;20056;-67
2022/07/07 02:23:32;;;;;;;4.55;0.90;;;15.60;91.50;;;;;;5054126;28;20037;-64
2022/07/07 02:25:58;;;;;;;1.50;0.75;;;15.40;91.60;;;;;;5053980;28;20036;-64
2022/07/07 02:28:24;;;;;;;5.40;1.00;;;15.50;91.60;;;;;;5053875;28;20053;-65
2022/07/07 02:30:51;;;;;;;3.90;1.05;;;15.30;91.90;;;;;;5052682;28;20083;-65
2022/07/07 02:33:17;;;;;;;1.83;0.75;;;15.30;92.00;;;;;;5053740;28;20128;-65
2022/07/07 02:35:42;;;;;;;6.95;1.15;;;15.30;92.00;;;;;;5053840;28;20120;-64
2022/07/07 02:38:08;;;;;;;6.78;1.25;;;15.20;91.90;;;;;;5071429;28;20039;-65
2022/07/07 02:40:34;;;;;;;4.57;1.30;;;15.20;91.80;;;;;;5073784;28;20113;-66
2022/07/07 02:42:59;;;;;;;4.90;1.13;;;15.30;92.10;;;;;;5073817;28;20098;-67
2022/07/07 02:45:25;;;;;;;3.35;1.00;;;15.20;92.20;;;;;;5063965;28;20369;-65
2022/07/07 02:47:51;;;;;;;4.85;0.80;;;15.10;92.10;;;;;;5053572;28;20538;-67
2022/07/07 02:50:17;;;;;;;2.63;1.08;;;15.00;92.20;;;;;;5053702;28;20037;-64
2022/07/07 02:52:43;;;;;;;4.50;0.90;;;15.00;92.60;;;;;;5053749;28;20086;-67
2022/07/07 02:55:10;;;;;;;2.10;0.73;;;14.90;92.60;;;;;;5053469;28;20040;-65
2022/07/07 02:57:36;;;;;;;12.15;1.17;;;14.90;92.60;;;;;;5053501;28;20418;-64
2022/07/07 03:00:04;;;;;;;7.28;1.33;;;14.90;92.50;;;;;;5053550;28;20102;-65
2022/07/07 03:02:29;;;;;;;2.45;1.20;;;15.00;92.70;;;;;;5053318;28;20084;-68
2022/07/07 03:04:55;;;;;;;4.45;0.98;;;15.00;92.20;;;;;;5053669;28;20072;-66
2022/07/07 03:07:21;;;;;;;3.60;0.98;;;14.90;92.30;;;;;;5053519;28;20048;-64
2022/07/07 03:09:46;;;;;;;2.30;0.70;;;14.90;92.70;;;;;;5053503;28;20037;-64
2022/07/07 03:12:12;;;;;;;2.60;0.80;;;14.90;92.70;;;;;;5053439;28;20045;-66
2022/07/07 03:14:38;;;;;;;5.22;1.58;;;14.80;92.70;;;;;;5053496;28;20045;-65
2022/07/07 03:17:04;;;;;;;3.80;0.90;;;14.90;92.60;;;;;;5053292;28;20045;-67
2022/07/07 03:19:30;;;;;;;7.00;2.03;;;14.90;92.70;;;;;;5053484;28;20037;-66
2022/07/07 03:21:55;;;;;;;4.00;1.20;;;14.70;92.90;;;;;;5053196;28;20095;-65
2022/07/07 03:24:21;;;;;;;6.90;1.00;;;14.60;93.30;;;;;;5053448;28;20444;-67
2022/07/07 03:26:47;;;;;;;4.60;1.00;;;14.60;93.20;;;;;;5053576;28;20590;-68
2022/07/07 03:29:13;;;;;;;2.90;1.00;;;14.40;93.60;;;;;;5053362;28;20075;-67
2022/07/07 03:31:38;;;;;;;4.13;0.93;;;14.50;93.50;;;;;;5053134;28;20102;-66
2022/07/07 03:34:04;;;;;;;2.50;0.90;;;14.60;93.30;;;;;;5053331;28;20041;-66
2022/07/07 03:36:30;;;;;;;4.25;0.93;;;14.60;93.80;;;;;;5053334;28;20044;-64
2022/07/07 03:38:56;;;;;;;4.30;0.80;;;14.60;93.00;;;;;;5053510;28;20119;-64
2022/07/07 03:41:21;;;;;;;4.47;1.13;;;14.60;93.20;;;;;;5053841;28;20090;-64
2022/07/07 03:43:47;;;;;;;6.53;1.00;;;14.50;93.30;;;;;;5056878;28;20091;-64
2022/07/07 03:46:13;;;;;;;2.95;1.10;;;14.50;93.50;;;;;;5056669;28;20052;-67
2022/07/07 03:48:38;;;;;;;2.65;0.85;;;14.40;93.60;;;;;;5056747;28;20037;-65
2022/07/07 03:51:04;;;;;;;4.70;1.10;;;14.30;94.00;;;;;;5056617;28;20033;-66
2022/07/07 03:53:30;;;;;;;3.17;0.90;;;14.40;93.90;;;;;;5056820;28;20512;-65
2022/07/07 03:55:56;;;;;;;4.07;0.77;;;14.30;93.90;;;;;;5056630;28;20040;-66
2022/07/07 03:58:22;;;;;;;5.03;1.17;;;14.30;94.00;;;;;;5056682;28;20120;-65
2022/07/07 04:00:47;;;;;;;5.20;1.40;;;14.30;93.80;;;;;;5056281;28;20079;-69
2022/07/07 04:03:13;;;;;;;2.22;0.93;;;14.30;94.00;;;;;;5056571;28;20033;-69
2022/07/07 04:05:39;;;;;;;2.88;0.90;;;14.20;94.20;;;;;;5056593;28;20082;-65
2022/07/07 04:08:05;;;;;;;5.55;1.33;;;14.40;93.70;;;;;;5056465;28;20577;-66
2022/07/07 04:10:30;;;;;;;4.15;0.93;;;14.40;94.20;;;;;;5056555;28;20036;-68
2022/07/07 04:12:56;;;;;;;5.90;1.08;;;14.40;93.70;;;;;;5056421;28;20507;-64
2022/07/07 04:15:22;;;;;;;3.22;0.95;;;14.50;93.80;;;;;;5056010;28;20385;-68
2022/07/07 04:17:47;;;;;;;8.45;1.20;;;14.40;94.20;;;;;;5056094;28;20048;-65
2022/07/07 04:20:13;;;;;;;3.42;1.05;;;14.40;94.00;;;;;;5056029;28;20043;-66
2022/07/07 04:22:39;;;;;;;2.03;0.70;;;14.50;94.10;;;;;;5056128;28;20048;-65
2022/07/07 04:25:05;;;;;;;2.53;0.80;;;14.30;94.20;;;;;;5056037;28;20070;-66
2022/07/07 04:27:31;;;;;;;5.15;1.10;;;14.30;94.30;;;;;;5056037;28;20523;-64
2022/07/07 04:29:57;;;;;;;2.35;1.10;;;14.30;94.20;;;;;;5055822;28;20037;-66
2022/07/07 04:32:22;;;;;;;3.83;1.30;;;14.40;94.30;;;;;;5055937;28;20041;-66
2022/07/07 04:34:48;;;;;;;4.05;0.80;;;14.50;94.30;;;;;;5056142;28;20041;-66
2022/07/07 04:37:14;;;;;;;6.57;1.42;;;14.30;94.30;;;;;;5055968;28;20504;-69
2022/07/07 04:39:39;;;;;;;2.85;0.90;;;14.50;94.30;;;;;;5055870;28;20402;-65
2022/07/07 04:42:05;;;;;;;6.20;1.30;;;14.50;94.30;;;;;;5055724;28;20160;-65
2022/07/07 04:44:31;;;;;;;2.53;1.08;;;14.50;94.50;;;;;;5055517;28;20072;-65
2022/07/07 04:46:57;;;;;;;4.40;1.02;;;14.50;94.50;;;;;;5055684;28;20124;-69
2022/07/07 04:49:23;;;;;;;4.13;1.13;;;14.50;94.50;;;;;;5055658;28;20033;-71
2022/07/07 04:51:49;;;;;;;5.55;1.63;;;14.60;94.70;;;;;;5055698;28;20087;-64
2022/07/07 04:54:15;;;;;;;4.25;1.48;;;14.60;94.30;;;;;;5054623;28;20036;-66
2022/07/07 04:56:41;;;;;;;6.07;1.10;;;14.90;94.40;;;;;;5055552;28;20045;-64
2022/07/07 04:59:07;;;;;;;2.45;1.02;;;14.90;94.20;;;;;;5055338;28;20488;-65
2022/07/07 05:01:33;;;;;;;3.25;1.05;;;15.00;94.60;;;;;;5055368;28;20599;-65
2022/07/07 05:03:58;;;;;;;3.83;1.25;;;14.90;95.00;;;;;;5055263;28;20032;-66
2022/07/07 05:06:24;;;;;;;6.95;1.52;;;15.00;94.90;;;;;;5055179;28;20381;-66
2022/07/07 05:08:50;;;;;;;5.43;1.55;;;15.20;94.50;;;;;;5055270;28;20041;-67
2022/07/07 05:11:16;;;;;;;4.47;1.10;;;15.30;94.60;;;;;;5055133;28;20481;-68
2022/07/07 05:13:41;;;;;;;3.17;1.17;;;15.40;94.70;;;;;;5055015;28;20086;-65
2022/07/07 05:16:07;;;;;;;6.55;1.20;;;15.50;94.20;;;;;;5055139;28;20090;-66
2022/07/07 05:18:33;;;;;;;5.90;1.45;;;15.70;94.30;;;;;;5055037;28;20033;-68
2022/07/07 05:20:59;;;;;;;2.08;0.90;;;15.80;94.80;;;;;;5054964;28;20088;-66
2022/07/07 05:23:25;;;;;;;2.97;1.00;;;16.10;94.60;;;;;;5054814;28;20094;-66
2022/07/07 05:25:52;;;;;;;2.83;1.00;;;16.20;94.20;;;;;;5054819;28;20044;-66
2022/07/07 05:28:18;;;;;;;3.63;0.98;;;16.40;94.50;;;;;;5054665;28;20041;-67
2022/07/07 05:30:43;;;;;;;3.47;1.23;;;16.50;94.00;;;;;;5071048;28;20044;-67
2022/07/07 05:33:10;;;;;;;3.45;1.10;;;16.70;93.30;;;;;;5062833;28;20047;-66
2022/07/07 05:35:36;;;;;;;2.47;0.98;;;16.90;94.40;;;;;;5054741;28;20075;-66
2022/07/07 05:38:03;;;;;;;3.28;1.00;;;17.10;93.70;;;;;;5054791;28;20064;-67
2022/07/07 05:40:29;;;;;;;5.70;1.05;;;17.20;94.30;;;;;;5054414;28;20496;-66
2022/07/07 05:42:55;;;;;;;7.03;1.50;;;17.50;94.60;;;;;;5054649;28;20064;-67
2022/07/07 05:45:20;;;;;;;12.05;1.23;;;17.50;93.60;;;;;;5054609;28;20094;-66
2022/07/07 05:47:47;;;;;;;7.95;1.20;;;17.90;94.10;;;;;;5054584;28;20362;-67
2022/07/07 05:50:13;;;;;;;4.25;1.25;;;18.20;94.70;;;;;;5054499;28;20045;-67
2022/07/07 05:52:39;;;;;;;7.88;1.92;;;18.30;94.20;;;;;;5054431;28;20044;-67
2022/07/07 05:55:07;;;;;;;3.38;1.25;;;18.40;93.80;;;;;;5054520;28;20404;-67
2022/07/07 05:57:33;;;;;;;2.47;0.98;;;18.50;94.00;;;;;;5054274;28;20033;-67
2022/07/07 05:59:59;;;;;;;3.53;0.90;;;18.80;93.50;;;;;;5054422;28;20032;-67
2022/07/07 06:02:25;;;;;;;5.25;1.05;;;19.00;93.70;;;;;;5054274;28;20199;-67
2022/07/07 06:04:51;;;;;;;5.03;0.82;;;19.10;93.70;;;;;;5054108;28;20090;-66
2022/07/07 06:07:17;;;;;;;4.10;1.05;;;19.20;93.60;;;;;;5054106;28;20041;-66
2022/07/07 06:09:43;;;;;;;6.05;1.52;;;19.30;92.80;;;;;;5054223;28;20032;-66
2022/07/07 06:12:09;;;;;;;2.45;0.95;;;19.30;91.70;;;;;;5054136;28;20044;-67
2022/07/07 06:14:35;;;;;;;7.30;1.45;;;19.50;93.50;;;;;;5054208;28;20119;-67
2022/07/07 06:17:01;;;;;;;7.32;1.42;;;19.80;93.40;;;;;;5054164;28;20392;-67
2022/07/07 06:19:27;;;;;;;3.95;0.93;;;20.20;92.50;;;;;;5054020;28;20037;-67
2022/07/07 06:21:53;;;;;;;5.07;1.30;;;20.30;92.40;;;;;;5053855;28;20427;-67
2022/07/07 06:24:19;;;;;;;6.22;1.27;;;20.20;93.20;;;;;;5053903;28;20102;-66
2022/07/07 06:26:45;;;;;;;6.18;1.05;;;20.40;93.50;;;;;;5053850;28;20462;-67
2022/07/07 06:29:10;;;;;;;3.65;1.23;;;20.60;92.00;;;;;;5053856;28;20037;-66
2022/07/07 06:31:36;;;;;;;5.10;1.10;;;20.80;91.40;;;;;;5053279;28;20041;-67
2022/07/07 06:34:02;;;;;;;7.13;1.58;;;20.80;91.90;;;;;;5053035;28;20064;-67
2022/07/07 06:36:28;;;;;;;3.80;1.00;;;21.20;91.70;;;;;;5053497;28;20029;-67
2022/07/07 06:38:54;;;;;;;8.15;1.33;;;21.00;88.90;;;;;;5051402;28;20051;-67
2022/07/07 06:41:23;;;;;;;4.45;1.55;;;20.90;91.50;;;;;;5051654;28;20418;-67
2022/07/07 06:43:50;;;;;;;3.92;1.35;;;21.40;90.40;;;;;;5052463;28;20043;-67
2022/07/07 06:46:16;;;;;;;7.82;1.35;;;21.60;89.30;;;;;;5053910;28;20098;-66
2022/07/07 06:48:42;;;;;;;3.42;1.40;;;21.70;90.20;;;;;;5053953;28;20049;-66
2022/07/07 06:51:07;;;;;;;21.73;1.58;;;21.50;88.60;;;;;;5053779;28;20029;-67
2022/07/07 06:53:33;;;;;;;5.28;1.45;;;21.80;89.90;;;;;;5053806;28;20049;-68
2022/07/07 06:55:59;;;;;;;9.88;1.52;;;21.90;90.50;;;;;;5053707;28;20044;-67
2022/07/07 06:58:25;;;;;;;3.45;1.00;;;22.20;91.00;;;;;;5053775;28;20507;-66
2022/07/07 07:00:51;;;;;;;6.32;1.75;;;22.30;91.00;;;;;;5053523;28;20044;-68
2022/07/07 07:03:16;;;;;;;2.97;1.23;;;21.80;89.20;;;;;;5053680;28;20036;-68
2022/07/07 07:05:42;;;;;;;4.53;1.40;;;22.10;87.40;;;;;;5053698;28;20040;-67
2022/07/07 07:08:08;;;;;;;4.22;1.20;;;22.70;90.60;;;;;;5053587;28;20111;-67
2022/07/07 07:10:34;;;;;;;7.35;1.75;;;22.40;90.30;;;;;;5053542;28;20025;-67
2022/07/07 07:12:59;;;;;;;5.90;1.50;;;23.00;90.00;;;;;;5053520;28;20102;-67
2022/07/07 07:15:25;;;;;;;4.18;1.10;;;22.20;87.70;;;;;;5053705;28;20068;-67
2022/07/07 07:17:51;;;;;;;4.20;1.10;;;21.70;88.70;;;;;;5056542;28;20076;-67
2022/07/07 07:20:17;;;;;;;5.78;1.63;;;22.80;94.60;;;;;;5057655;28;20096;-67
2022/07/07 07:22:42;;;;;;;4.75;1.05;;;22.60;89.90;;;;;;5057028;28;20098;-66
2022/07/07 07:25:08;;;;;;;6.20;1.17;;;22.60;86.70;;;;;;5057079;28;20064;-67
2022/07/07 07:27:34;;;;;;;3.42;1.15;;;22.30;87.70;;;;;;5056990;28;20048;-67
2022/07/07 07:30:01;;;;;;;6.90;1.20;;;21.90;87.60;;;;;;5057116;28;20041;-67
2022/07/07 07:32:27;;;;;;;6.35;1.42;;;22.10;86.90;;;;;;5057120;28;20037;-67
2022/07/07 07:34:52;;;;;;;6.32;1.45;;;22.30;87.60;;;;;;5057033;28;20400;-66
2022/07/07 07:37:18;;;;;;;3.60;1.33;;;23.00;90.90;;;;;;5056866;28;20048;-67
2022/07/07 07:39:44;;;;;;;1.83;1.02;;;23.10;86.80;;;;;;5056994;28;20167;-67
2022/07/07 07:42:09;;;;;;;3.88;1.20;;;22.90;86.20;;;;;;5056814;28;20045;-67
2022/07/07 07:47:19;;;;;;;3.47;1.55;;;23.20;88.00;;;;;;5056697;28;20507;-67
2022/07/07 07:49:45;;;;;;;7.60;1.27;;;22.90;87.20;;;;;;5056589;28;20037;-67
2022/07/07 07:52:11;;;;;;;6.10;2.05;;;23.20;90.30;;;;;;5056534;28;20041;-67
2022/07/07 07:54:37;;;;;;;7.45;1.08;;;23.00;84.70;;;;;;5056467;28;20029;-67
2022/07/07 07:57:03;;;;;;;8.10;1.30;;;24.00;90.20;;;;;;5056406;28;20047;-67
2022/07/07 07:59:28;;;;;;;4.80;1.10;;;24.40;89.10;;;;;;5056615;28;20388;-68
2022/07/07 08:01:54;;;;;;;3.65;1.60;;;23.80;84.50;;;;;;5056440;28;20045;-68
2022/07/07 08:04:20;;;;;;;1.27;0.80;;;24.60;86.00;;;;;;5056373;28;20400;-67
2022/07/07 08:06:46;;;;;;;3.72;0.90;;;24.70;83.40;;;;;;5056299;28;20076;-67
2022/07/07 08:09:12;;;;;;;3.40;1.20;;;24.20;84.00;;;;;;5056301;28;20087;-68
2022/07/07 08:11:38;;;;;;;7.63;1.50;;;24.20;85.20;;;;;;5056405;28;20381;-67
2022/07/07 08:14:04;;;;;;;4.03;1.10;;;;;;;;;;5056357;28;20041;-67
2022/07/07 08:16:30;;;;;;;6.43;1.08;;;24.40;83.40;;;;;;5056366;28;20095;-67
2022/07/07 08:18:56;;;;;;;3.55;1.10;;;23.90;82.60;;;;;;5056058;28;20690;-67
2022/07/07 08:21:21;;;;;;;3.50;1.02;;;24.10;85.00;;;;;;5056162;28;20045;-67
2022/07/07 08:23:47;;;;;;;4.03;0.93;;;25.20;93.10;;;;;;5056182;28;20033;-67
2022/07/07 08:26:13;;;;;;;8.70;1.20;;;25.30;84.10;;;;;;5056042;28;20412;-68
2022/07/07 08:28:40;;;;;;;12.57;2.17;;;25.70;82.90;;;;;;5056020;28;20127;-68
2022/07/07 08:31:09;;;;;;;4.20;1.25;;;25.80;88.30;;;;;;5055848;28;20059;-68
2022/07/07 08:33:35;;;;;;;6.47;1.20;;;25.80;81.30;;;;;;5055922;28;20053;-67
2022/07/07 08:36:01;;;;;;;4.55;1.30;;;25.80;85.60;;;;;;5055927;28;20031;-68
2022/07/07 08:38:26;;;;;;;3.40;1.05;;;26.20;85.80;;;;;;5056039;28;20033;-67
2022/07/07 08:40:53;;;;;;;6.70;1.50;;;26.30;84.00;;;;;;5055948;28;20455;-68
2022/07/07 08:43:19;;;;;;;6.10;1.15;;;25.80;84.30;;;;;;5055711;28;20040;-68
2022/07/07 08:45:47;;;;;;;2.58;1.17;;;26.30;86.50;;;;;;5055860;28;20128;-68
2022/07/07 08:48:13;;;;;;;5.97;1.20;;;26.40;83.50;;;;;;5055563;28;20124;-67
2022/07/07 08:50:39;;;;;;;5.32;1.30;;;25.60;81.50;;;;;;5055573;28;20068;-67
2022/07/07 08:53:07;;;;;;;7.00;1.13;;;25.50;84.70;;;;;;5055596;28;20124;-67
2022/07/07 08:55:35;;;;;;;4.40;1.35;;;26.20;86.50;;;;;;5055406;28;20080;-68
2022/07/07 08:58:02;;;;;;;3.90;1.23;;;26.30;82.40;;;;;;5055376;28;20095;-67
2022/07/07 09:00:27;;;;;;;2.88;1.10;;;26.70;85.70;;;;;;5055371;28;20043;-68
2022/07/07 09:02:57;;;;;;;5.20;1.10;;;26.70;81.20;;;;;;5055108;28;20494;-68
2022/07/07 09:05:24;;;;;;;6.32;1.00;;;26.50;84.70;;;;;;5055358;28;20090;-67
2022/07/07 09:07:52;;;;;;;2.58;1.10;;;26.60;79.60;;;;;;5055232;28;20451;-67
2022/07/07 09:10:47;;;;;;;4.35;1.63;;;26.80;84.10;;;;;;5055341;28;20037;-68
2022/07/07 09:13:30;;;;;;;5.63;1.30;;;27.10;85.00;;;;;;5046510;28;20132;-68
2022/07/07 09:16:04;;;;;;;2.45;1.10;;;26.90;82.50;;;;;;5055109;28;20037;-68
2022/07/07 09:18:35;;;;;;;3.58;1.13;;;27.20;84.30;;;;;;5055060;28;20044;-68
2022/07/07 09:21:03;;;;;;;5.18;1.50;;;27.30;79.80;;;;;;5054990;28;20077;-68
2022/07/07 09:23:29;;;;;;;4.18;1.10;;;27.20;79.00;;;;;;5055214;28;20043;-68
2022/07/07 09:25:55;;;;;;;4.30;0.90;;;27.30;86.80;;;;;;5054938;28;20045;-68
2022/07/07 09:28:21;;;;;;;2.80;1.15;;;27.10;82.70;;;;;;5055002;28;20051;-68
2022/07/07 09:30:48;;;;;;;4.32;1.00;;;27.10;79.90;;;;;;5054643;28;20052;-68
2022/07/07 09:33:26;;;;;;;4.85;1.55;;;26.90;83.60;;;;;;5054749;28;20041;-68
2022/07/07 09:38:40;;;;;;;4.30;1.30;;;27.10;83.00;;;;;;5054715;28;20526;-68
2022/07/07 09:41:12;;;;;;;3.70;0.77;;;27.00;84.50;;;;;;5054233;28;20033;-68
2022/07/07 09:43:47;;;;;;;3.97;0.73;;;26.00;80.00;;;;;;5054754;28;20044;-68
2022/07/07 09:46:14;;;;;;;16.48;2.13;;;25.90;78.50;;;;;;5054753;28;20112;-68
2022/07/07 09:48:52;;;;;;;2.97;1.23;;;25.50;81.70;;;;;;5054494;28;20524;-68
2022/07/07 09:51:25;;;;;;;2.65;0.93;;;26.70;82.70;;;;;;5054754;28;20044;-67
2022/07/07 09:54:14;;;;;;;5.05;1.48;;;26.80;84.80;;;;;;5074057;28;20059;-68
2022/07/07 09:56:47;;;;;;;3.42;0.93;;;26.90;85.80;;;;;;5074348;28;20036;-68
2022/07/07 09:59:19;;;;;;;3.15;1.20;;;26.90;82.30;;;;;;5074243;28;20514;-68
2022/07/07 10:01:46;;;;;;;69.45;5.30;;;26.90;80.70;;;;;;5074181;28;20113;-68
2022/07/07 10:04:14;;;;;;;3.28;1.38;;;26.70;82.20;;;;;;5074296;28;20036;-68
2022/07/07 10:06:42;;;;;;;6.30;1.10;;;27.10;84.70;;;;;;5074407;28;20036;-67
2022/07/07 10:09:09;;;;;;;5.63;1.13;;;27.10;83.90;;;;;;5074193;28;20047;-68
2022/07/07 10:11:38;;;;;;;5.75;1.02;;;26.60;83.00;;;;;;5074187;28;20402;-68
2022/07/07 10:14:14;;;;;;;6.53;0.75;;;26.80;80.30;;;;;;5074239;28;20040;-67
2022/07/07 10:16:40;;;;;;;2.95;1.10;;;25.30;80.50;;;;;;5074257;28;20040;-67
2022/07/07 10:19:08;;;;;;;2.10;1.05;;;26.40;83.80;;;;;;5073995;28;20040;-67
2022/07/07 10:21:34;;;;;;;11.65;1.40;;;26.20;82.40;;;;;;5073520;28;20507;-67
2022/07/07 10:24:00;;;;;;;1.95;0.90;;;26.80;83.40;;;;;;5074007;28;20032;-67
2022/07/07 10:26:40;;;;;;;3.20;1.08;;;27.10;84.00;;;;;;5074070;28;20364;-68
2022/07/07 10:29:08;;;;;;;4.40;1.00;;;26.50;82.10;;;;;;5073814;28;20038;-68
2022/07/07 10:31:35;;;;;;;3.78;1.13;;;26.80;79.30;;;;;;5073831;28;20059;-68
2022/07/07 10:34:09;;;;;;;3.08;1.00;;;26.60;81.60;;;;;;5073777;28;20115;-68
2022/07/07 10:36:50;;;;;;;1.88;1.02;;;26.70;79.90;;;;;;5073603;28;20051;-68
2022/07/07 10:39:23;;;;;;;1.83;0.73;;;26.90;79.00;;;;;;5073631;28;20047;-68
2022/07/07 10:41:54;;;;;;;2.00;1.00;;;27.10;84.60;;;;;;5073604;28;20051;-68
2022/07/07 10:44:21;;;;;;;3.63;0.70;;;27.50;86.20;;;;;;5073831;28;20036;-68
2022/07/07 10:47:00;;;;;;;1.50;0.60;;;27.10;79.10;;;;;;5073897;28;20040;-68
2022/07/07 10:49:46;;;;;;;2.78;0.95;;;25.40;78.30;;;;;;5074024;28;20037;-67
2022/07/07 10:52:17;;;;;;;4.93;0.70;;;25.20;81.60;;;;;;5075629;28;20128;-67
2022/07/07 10:54:51;;;;;;;2.55;0.90;;;25.50;87.00;;;;;;5077902;28;20403;-67
2022/07/07 10:57:27;;;;;;;1.58;0.75;;;25.50;79.50;;;;;;5077632;28;20463;-67
2022/07/07 10:59:58;;;;;;;3.70;0.75;;;25.80;83.00;;;;;;5077730;28;20115;-67
2022/07/07 11:02:29;;;;;;;;;;;26.80;85.00;;;;;;5078047;28;20472;-68
2022/07/07 11:04:56;;;;;;;5.55;0.90;;;26.50;78.90;;;;;;5077719;28;19908;-68
2022/07/07 11:07:28;;;;;;;2.45;0.80;;;25.50;80.60;;;;;;5077579;28;20032;-68
2022/07/07 11:10:05;;;;;;;5.10;1.00;;;25.30;85.50;;;;;;5077353;28;20059;-67
2022/07/07 11:12:39;;;;;;;2.10;0.70;;;26.20;81.60;;;;;;5077577;28;20029;-68
2022/07/07 11:15:20;;;;;;;2.45;1.05;;;26.60;80.30;;;;;;5077305;28;20044;-68
2022/07/07 11:17:53;;;;;;;4.65;0.80;;;26.90;83.90;;;;;;5077297;28;20028;-68
2022/07/07 11:20:22;;;;;;;6.20;1.42;;;27.30;87.10;;;;;;5077043;28;20044;-68
2022/07/07 11:22:50;;;;;;;4.85;0.70;;;25.80;79.20;;;;;;5077113;28;20587;-68
2022/07/07 11:25:21;;;;;;;0.98;0.50;;;25.70;82.10;;;;;;5077245;28;20060;-67
2022/07/07 11:27:51;;;;;;;4.03;0.80;;;26.10;80.90;;;;;;5077217;28;20046;-68
2022/07/07 11:30:22;;;;;;;2.05;0.50;;;26.20;87.20;;;;;;5077170;28;20503;-67
2022/07/07 11:32:49;;;;;;;4.03;0.75;;;25.10;80.30;;;;;;5077196;28;20482;-68
2022/07/07 11:35:15;;;;;;;2.72;0.80;;;24.50;82.70;;;;;;5077122;28;20041;-67
2022/07/07 11:37:44;;;;;;;4.40;0.70;;;25.50;84.60;;;;;;5077242;28;20527;-68
2022/07/07 11:40:12;;;;;;;2.58;0.73;;;25.80;84.70;;;;;;5077253;28;20032;-68
2022/07/07 11:42:39;;;;;;;1.73;0.70;;;26.20;84.20;;;;;;5077061;28;20040;-68
2022/07/07 11:45:21;;;;;;;5.55;0.90;;;25.90;82.00;;;;;;5076981;28;20503;-68
2022/07/07 11:47:49;;;;;;;2.60;0.93;;;25.30;83.50;;;;;;5077065;28;20071;-68
2022/07/07 11:50:15;;;;;;;1.83;0.70;;;24.30;84.30;;;;;;5076946;28;20119;-67
2022/07/07 11:52:57;;;;;;;2.25;0.60;;;24.70;84.50;;;;;;5076799;28;20032;-67
2022/07/07 11:55:24;;;;;;;4.82;0.88;;;25.80;87.70;;;;;;5076722;28;20043;-67
2022/07/07 11:57:55;;;;;;;2.53;0.75;;;26.10;82.40;;;;;;5076565;28;20079;-68
2022/07/07 12:00:24;;;;;;;2.55;0.90;;;25.10;82.70;;;;;;5075487;28;20044;-68
2022/07/07 12:02:51;;;;;;;3.35;0.80;;;25.10;89.90;;;;;;5076341;28;20048;-68
2022/07/07 12:05:19;;;;;;;1.90;0.70;;;25.80;87.70;;;;;;5076538;28;20040;-67
2022/07/07 12:08:02;;;;;;;1.88;0.93;;;26.40;88.60;;;;;;5076971;28;20044;-67
2022/07/07 12:10:33;;;;;;;3.90;0.68;;;26.00;82.80;;;;;;5076432;28;20051;-67
2022/07/07 12:13:05;;;;;;;2.30;1.02;;;25.20;85.50;;;;;;5076298;28;20093;-68
2022/07/07 12:15:38;;;;;;;3.38;0.90;;;26.10;87.70;;;;;;5076327;28;20024;-67
2022/07/07 12:18:05;;;;;;;1.77;0.80;;;26.70;87.00;;;;;;5076267;28;20050;-68
2022/07/07 12:20:32;;;;;;;2.22;0.85;;;26.70;82.20;;;;;;5076432;28;20591;-67
2022/07/07 12:23:00;;;;;;;6.10;1.30;;;26.90;90.20;;;;;;5076052;28;20059;-68
2022/07/07 12:25:28;;;;;;;3.30;0.77;;;26.70;81.90;;;;;;5076455;28;20032;-67
2022/07/07 12:28:00;;;;;;;2.45;0.82;;;26.80;87.30;;;;;;5076094;28;20048;-67
2022/07/07 12:30:31;;;;;;;3.90;0.95;;;26.80;84.30;;;;;;5075927;28;20037;-67
2022/07/07 12:32:58;;;;;;;5.13;0.80;;;26.80;85.90;;;;;;5075897;28;20115;-68
2022/07/07 12:35:38;;;;;;;3.55;0.80;;;27.00;90.00;;;;;;5075822;28;20128;-68
2022/07/07 12:38:06;;;;;;;2.20;0.77;;;26.90;82.30;;;;;;5076017;28;20038;-67
2022/07/07 12:40:34;;;;;;;2.70;0.73;;;27.00;82.50;;;;;;5076049;28;20044;-67
2022/07/07 12:43:08;;;;;;;11.18;1.33;;;25.30;81.90;;;;;;5075804;28;20040;-67
2022/07/07 12:45:34;;;;;;;2.30;0.98;;;26.00;85.10;;;;;;5075750;28;20399;-68
2022/07/07 12:48:00;;;;;;;4.53;0.68;;;26.40;87.10;;;;;;5075634;28;20457;-67
2022/07/07 12:50:26;;;;;;;2.95;0.70;;;26.80;87.10;;;;;;5075577;28;20082;-68
2022/07/07 12:52:59;;;;;;;1.40;0.60;;;26.80;87.60;;;;;;5075605;28;20037;-68
2022/07/07 12:55:51;;;;;;;4.57;0.70;;;26.90;88.60;;;;;;5075433;28;20040;-68